Time;durP1;ratioP1;P1;durP2;ratioP2;P2;SDS_P1;SDS_P2;PMS_P1;PMS_P2;Temp;Humidity;BMP_temperature;BMP_pressure;BME280_temperature;BME280_humidity;BME280_pressure;Samples;Min_cycle;Max_cycle;Signal;HPM_P1;HPM_P2
2024/01/17 00:02:08;;;;;;;14.45;7.93;;;5.10;60.70;;;-0.20;100.00;94131.97;4969430;28;20025;-57
2024/01/17 00:04:34;;;;;;;13.35;8.35;;;5.10;60.70;;;-0.17;100.00;94131.50;4964453;28;20377;-50
2024/01/17 00:07:00;;;;;;;16.38;8.60;;;5.20;60.70;;;-0.18;100.00;94132.53;4960132;28;20084;-52
2024/01/17 00:09:26;;;;;;;14.70;8.35;;;5.20;60.80;;;-0.20;100.00;94133.81;4971324;28;20104;-57
2024/01/17 00:11:52;;;;;;;17.80;8.25;;;5.20;60.80;;;-0.17;100.00;94133.34;4963843;28;20030;-57
2024/01/17 00:14:18;;;;;;;14.63;8.20;;;5.20;60.80;;;-0.16;100.00;94127.06;4969848;28;20092;-55
2024/01/17 00:16:44;;;;;;;14.60;8.68;;;5.20;60.80;;;-0.20;100.00;94121.50;4962761;28;20037;-57
2024/01/17 00:19:10;;;;;;;12.30;8.05;;;5.20;60.90;;;-0.24;100.00;94125.63;4963967;28;20030;-57
2024/01/17 00:21:36;;;;;;;21.75;9.55;;;5.20;60.90;;;-0.20;100.00;94121.50;4969004;28;20037;-56
2024/01/17 00:24:01;;;;;;;14.73;8.93;;;5.20;60.90;;;-0.20;100.00;94129.34;4953087;28;20485;-57
2024/01/17 00:26:28;;;;;;;19.20;9.35;;;5.20;61.00;;;-0.21;100.00;94122.53;4965703;28;20038;-55
2024/01/17 00:28:55;;;;;;;17.35;9.35;;;5.20;61.10;;;-0.19;100.00;94120.47;4965084;28;20027;-57
2024/01/17 00:31:22;;;;;;;16.30;9.00;;;5.20;61.20;;;-0.20;100.00;94118.88;4964384;28;20030;-57
2024/01/17 00:33:47;;;;;;;18.63;10.10;;;5.20;61.20;;;-0.17;100.00;94117.63;4958982;28;20041;-56
2024/01/17 00:36:14;;;;;;;16.30;9.35;;;5.20;61.20;;;-0.17;100.00;94112.41;4965084;28;20022;-57
2024/01/17 00:38:40;;;;;;;15.63;9.05;;;5.20;61.30;;;-0.20;100.00;94105.00;4962605;28;20110;-53
2024/01/17 00:41:06;;;;;;;14.18;8.75;;;5.20;61.40;;;-0.18;100.00;94102.97;4963539;28;20098;-57
2024/01/17 00:43:32;;;;;;;13.80;8.68;;;5.20;61.40;;;-0.19;100.00;94094.28;4963238;28;20121;-55
2024/01/17 00:45:59;;;;;;;14.45;8.63;;;5.20;61.50;;;-0.21;100.00;94088.53;4965266;28;20050;-55
2024/01/17 00:48:25;;;;;;;15.80;8.70;;;5.20;61.50;;;-0.24;100.00;94068.03;4958750;28;20681;-57
2024/01/17 00:50:51;;;;;;;13.20;8.38;;;5.20;61.50;;;-0.20;100.00;94068.38;4964227;28;20118;-57
2024/01/17 00:53:17;;;;;;;14.90;8.70;;;5.20;61.60;;;-0.24;100.00;94063.59;4967154;28;20057;-57
2024/01/17 00:55:42;;;;;;;14.57;8.88;;;5.20;61.60;;;-0.19;100.00;94070.75;4961578;28;20026;-55
2024/01/17 00:58:08;;;;;;;13.02;8.50;;;5.20;61.70;;;-0.20;100.00;94063.94;4965018;28;20026;-57
2024/01/17 01:00:34;;;;;;;14.18;8.63;;;5.20;61.70;;;-0.20;100.00;94060.53;4957074;28;20083;-57
2024/01/17 01:03:00;;;;;;;15.10;8.90;;;5.20;61.80;;;-0.19;100.00;94057.66;4964230;28;20041;-57
2024/01/17 01:05:26;;;;;;;14.68;8.85;;;5.20;61.80;;;-0.21;100.00;94041.41;4958872;28;20105;-57
2024/01/17 01:07:51;;;;;;;14.00;8.32;;;5.20;61.80;;;-0.26;100.00;94034.25;4963342;28;20444;-57
2024/01/17 01:10:17;;;;;;;15.02;8.48;;;5.20;62.50;;;-0.37;100.00;94029.88;4962706;28;20033;-56
2024/01/17 01:12:43;;;;;;;15.95;8.52;;;5.20;61.80;;;-0.29;100.00;94020.84;4978431;28;20037;-57
2024/01/17 01:15:09;;;;;;;14.30;8.50;;;5.20;61.90;;;-0.26;100.00;94021.16;4967476;28;20113;-56
2024/01/17 01:17:35;;;;;;;16.67;9.45;;;5.10;61.80;;;-0.28;100.00;94025.84;4958297;28;20058;-57
2024/01/17 01:20:01;;;;;;;15.32;9.15;;;5.10;61.90;;;-0.28;100.00;94025.06;4966728;28;20050;-55
2024/01/17 01:22:27;;;;;;;15.13;9.10;;;5.10;61.90;;;-0.26;100.00;94029.00;4961539;28;20026;-54
2024/01/17 01:24:53;;;;;;;16.17;9.63;;;5.10;62.00;;;-0.25;100.00;94020.16;4957130;28;20026;-54
2024/01/17 01:27:19;;;;;;;13.80;8.57;;;5.10;62.10;;;-0.23;100.00;94017.28;4968210;28;20034;-53
2024/01/17 01:29:45;;;;;;;16.05;8.88;;;5.10;62.10;;;-0.19;100.00;94010.53;4961644;28;20022;-57
2024/01/17 01:32:11;;;;;;;16.20;8.73;;;5.20;62.20;;;-0.17;100.00;94007.69;4968098;28;20378;-57
2024/01/17 01:34:37;;;;;;;14.10;8.80;;;5.20;62.30;;;-0.15;100.00;94014.28;4983225;28;20378;-54
2024/01/17 01:37:03;;;;;;;14.75;8.90;;;5.20;62.30;;;-0.11;100.00;94014.63;4962525;28;20057;-55
2024/01/17 01:39:29;;;;;;;13.63;9.15;;;5.20;62.30;;;-0.08;100.00;94008.91;4965542;28;20129;-54
2024/01/17 01:41:55;;;;;;;13.68;9.07;;;5.30;62.30;;;-0.08;100.00;94006.28;4962268;28;20564;-56
2024/01/17 01:44:21;;;;;;;14.60;8.68;;;5.30;62.30;;;-0.09;100.00;94010.75;4966216;28;20026;-57
2024/01/17 01:46:49;;;;;;;11.05;7.78;;;5.30;62.30;;;-0.09;100.00;94007.34;4960049;28;20043;-53
2024/01/17 01:49:16;;;;;;;12.63;8.82;;;5.30;62.30;;;-0.08;100.00;94017.56;4957413;28;20025;-57
2024/01/17 01:51:48;;;;;;;14.40;9.55;;;5.30;62.30;;;-0.10;100.00;94024.84;4957545;28;20104;-55
2024/01/17 01:54:19;;;;;;;13.75;9.00;;;5.30;62.40;;;-0.11;100.00;94018.03;4977853;28;20023;-56
2024/01/17 01:56:48;;;;;;;16.45;9.63;;;5.30;62.30;;;-0.12;100.00;94008.59;4966153;28;20421;-55
2024/01/17 01:59:17;;;;;;;17.80;10.10;;;5.30;62.30;;;-0.28;100.00;94009.38;4960134;28;20019;-53
2024/01/17 02:01:43;;;;;;;17.85;11.10;;;5.30;62.30;;;-0.31;100.00;94009.84;4964849;28;20023;-54
2024/01/17 02:04:10;;;;;;;19.38;11.82;;;5.30;62.30;;;-0.29;100.00;94015.59;4954749;28;20488;-53
2024/01/17 02:06:39;;;;;;;23.15;13.98;;;5.20;62.30;;;-0.28;100.00;94018.00;4955855;28;20070;-57
2024/01/17 02:09:06;;;;;;;21.40;12.63;;;5.10;62.40;;;-0.27;100.00;94019.59;4976304;28;20698;-56
2024/01/17 02:11:32;;;;;;;24.52;13.88;;;5.10;62.40;;;-0.34;100.00;94026.00;4953670;28;20042;-53
2024/01/17 02:13:59;;;;;;;24.13;14.35;;;5.10;62.50;;;-0.38;100.00;94027.47;4964013;28;20026;-56
2024/01/17 02:16:26;;;;;;;23.65;13.88;;;5.00;62.50;;;-0.38;100.00;94037.94;4959304;28;20047;-57
2024/01/17 02:18:53;;;;;;;22.83;13.52;;;5.00;62.60;;;-0.38;100.00;94037.94;4964351;28;20034;-54
2024/01/17 02:21:20;;;;;;;21.38;12.85;;;5.00;62.70;;;-0.37;100.00;94027.25;4962246;28;20026;-57
2024/01/17 02:23:53;;;;;;;19.88;12.38;;;4.90;62.80;;;-0.35;100.00;94019.94;4957314;28;20090;-50
2024/01/17 02:26:19;;;;;;;20.35;12.57;;;5.00;63.00;;;-0.34;100.00;94032.03;4954021;28;20034;-53
2024/01/17 02:28:45;;;;;;;20.98;12.05;;;5.00;62.90;;;-0.35;100.00;94019.94;4963459;28;20593;-52
2024/01/17 02:31:14;;;;;;;21.58;12.20;;;5.00;63.00;;;-0.31;100.00;94015.06;4957482;28;20117;-51
2024/01/17 02:33:41;;;;;;;21.65;12.18;;;5.00;63.00;;;-0.32;100.00;94018.69;4958784;28;20089;-57
2024/01/17 02:36:07;;;;;;;20.38;12.27;;;5.00;63.10;;;-0.33;100.00;94017.13;4964835;28;20026;-54
2024/01/17 02:38:33;;;;;;;19.92;11.85;;;5.00;63.10;;;-0.31;100.00;94007.22;4961458;28;20132;-57
2024/01/17 02:40:59;;;;;;;21.95;12.98;;;5.10;63.20;;;-0.32;100.00;94001.16;4978108;28;20037;-57
2024/01/17 02:43:27;;;;;;;19.17;12.25;;;5.10;63.20;;;-0.33;100.00;93994.34;4960958;28;20033;-57
2024/01/17 02:45:53;;;;;;;22.50;12.70;;;5.10;63.20;;;-0.30;100.00;93980.81;4956250;28;20046;-57
2024/01/17 02:48:19;;;;;;;23.17;14.00;;;5.10;63.20;;;-0.29;100.00;93979.75;4958993;28;20029;-57
2024/01/17 02:50:45;;;;;;;25.55;15.00;;;5.10;63.20;;;-0.38;100.00;93967.31;4998140;23;20061;-52
2024/01/17 02:53:10;;;;;;;28.35;15.68;;;5.10;63.30;;;-0.34;100.00;93979.69;4982322;28;20038;-52
2024/01/17 02:55:36;;;;;;;23.00;14.35;;;5.10;63.40;;;-0.33;100.00;93983.88;4981836;28;20425;-47
2024/01/17 02:58:02;;;;;;;26.50;14.70;;;5.00;63.40;;;-0.32;100.00;93975.00;4978581;28;20373;-47
2024/01/17 03:00:28;;;;;;;28.73;15.77;;;5.00;63.40;;;-0.33;100.00;93975.25;4974759;28;20022;-51
2024/01/17 03:02:54;;;;;;;26.10;15.45;;;5.00;63.50;;;-0.36;100.00;93962.63;4961245;28;20370;-49
2024/01/17 03:05:20;;;;;;;26.38;15.30;;;5.00;63.50;;;-0.34;100.00;93961.38;4955804;28;20023;-48
2024/01/17 03:07:46;;;;;;;26.45;15.48;;;5.00;63.50;;;-0.33;100.00;93964.78;4958359;28;20042;-48
2024/01/17 03:10:12;;;;;;;27.70;15.88;;;5.00;63.60;;;-0.33;100.00;93960.34;4965675;28;20026;-50
2024/01/17 03:12:40;;;;;;;26.02;14.88;;;5.00;63.60;;;-0.31;100.00;93971.38;4954510;28;20121;-49
2024/01/17 03:15:07;;;;;;;28.73;16.40;;;5.00;63.70;;;-0.29;100.00;93969.28;4965268;28;20076;-49
2024/01/17 03:17:36;;;;;;;27.08;15.35;;;5.00;63.80;;;-0.27;100.00;93962.00;4953928;28;20058;-48
2024/01/17 03:20:04;;;;;;;28.92;14.52;;;5.00;64.00;;;-0.24;100.00;93952.91;4962978;28;20029;-53
2024/01/17 03:22:31;;;;;;;24.50;14.18;;;5.10;64.00;;;-0.21;100.00;93931.50;4953511;28;20489;-48
2024/01/17 03:24:57;;;;;;;32.78;14.50;;;5.00;64.00;;;-0.25;100.00;93922.53;4957194;28;20035;-49
2024/01/17 03:27:23;;;;;;;25.15;14.63;;;5.10;64.00;;;-0.25;100.00;93922.53;4963664;28;20033;-52
2024/01/17 03:29:49;;;;;;;23.80;14.07;;;5.00;63.90;;;-0.25;100.00;93917.31;4954733;28;20165;-50
2024/01/17 03:32:15;;;;;;;30.13;16.38;;;5.00;63.90;;;-0.25;100.00;93933.78;4962235;28;20362;-47
2024/01/17 03:34:40;;;;;;;35.38;17.50;;;5.00;63.90;;;-0.28;100.00;93917.78;4960445;28;20034;-51
2024/01/17 03:37:06;;;;;;;28.77;17.52;;;5.00;64.00;;;-0.26;100.00;93915.69;4958069;28;20053;-48
2024/01/17 03:39:33;;;;;;;30.42;17.73;;;5.00;64.00;;;-0.27;100.00;93907.06;4959934;28;20433;-47
2024/01/17 03:42:00;;;;;;;26.92;15.23;;;5.00;64.10;;;-0.25;100.00;93896.38;4957657;28;20107;-50
2024/01/17 03:44:25;;;;;;;29.17;16.80;;;5.00;64.10;;;-0.26;100.00;93894.75;4962665;28;20030;-48
2024/01/17 03:46:51;;;;;;;27.75;16.13;;;5.00;64.20;;;-0.30;100.00;93888.44;4957225;28;20097;-55
2024/01/17 03:49:17;;;;;;;28.92;16.48;;;5.00;64.20;;;-0.29;100.00;93866.44;4959272;28;20030;-51
2024/01/17 03:51:43;;;;;;;27.98;15.43;;;5.00;64.30;;;-0.33;100.00;93865.34;4959459;28;20039;-48
2024/01/17 03:54:09;;;;;;;25.98;15.38;;;5.00;64.30;;;-0.34;100.00;93855.94;4960925;28;20030;-48
2024/01/17 03:56:35;;;;;;;23.98;14.05;;;5.00;64.30;;;-0.47;100.00;93849.97;4962070;28;20030;-48
2024/01/17 03:59:00;;;;;;;27.25;15.48;;;5.00;64.30;;;-0.40;100.00;93847.19;4960631;28;20092;-48
2024/01/17 04:01:26;;;;;;;22.70;13.65;;;4.90;64.40;;;-0.38;100.00;93847.72;4960961;28;20167;-48
2024/01/17 04:03:53;;;;;;;18.55;12.13;;;4.90;64.40;;;-0.36;100.00;93853.53;4956169;28;20015;-48
2024/01/17 04:06:19;;;;;;;21.85;13.27;;;4.90;64.50;;;-0.33;100.00;93857.50;4958585;28;20042;-48
2024/01/17 04:08:45;;;;;;;21.60;13.02;;;4.90;64.60;;;-0.31;100.00;93848.38;4959325;28;20531;-48
2024/01/17 04:11:11;;;;;;;23.73;13.25;;;4.90;64.60;;;-0.29;100.00;93845.53;4958143;28;20070;-48
2024/01/17 04:13:37;;;;;;;22.83;13.65;;;5.00;64.70;;;-0.26;100.00;93845.81;4957896;28;20140;-48
2024/01/17 04:16:03;;;;;;;20.42;12.00;;;5.00;64.70;;;-0.29;100.00;93822.75;4957217;28;20034;-48
2024/01/17 04:18:28;;;;;;;22.75;12.95;;;5.00;64.70;;;-0.24;100.00;93824.66;4957715;28;20408;-48
2024/01/17 04:20:54;;;;;;;21.27;11.95;;;5.00;64.70;;;-0.18;100.00;93828.94;4956427;28;20031;-48
2024/01/17 04:23:20;;;;;;;25.02;12.52;;;5.10;64.80;;;-0.19;100.00;93818.69;4960739;28;20066;-49
2024/01/17 04:25:46;;;;;;;22.90;12.55;;;5.10;64.70;;;-0.17;100.00;93824.50;4954652;28;20031;-50
2024/01/17 04:28:13;;;;;;;21.33;12.40;;;5.10;64.70;;;-0.16;100.00;93820.84;4959266;28;20027;-52
2024/01/17 04:30:38;;;;;;;25.08;13.43;;;5.10;64.80;;;-0.15;100.00;93822.44;4956707;28;20030;-49
2024/01/17 04:33:07;;;;;;;21.48;12.77;;;5.10;65.60;;;-0.11;100.00;93813.84;4957093;28;20504;-48
2024/01/17 04:35:33;;;;;;;20.98;12.52;;;5.10;64.80;;;-0.11;100.00;93816.47;4955754;28;20022;-48
2024/01/17 04:38:00;;;;;;;17.42;11.57;;;5.10;64.80;;;-0.08;100.00;93805.53;4957442;28;20045;-48
2024/01/17 04:40:26;;;;;;;18.85;12.05;;;5.10;64.90;;;-0.06;100.00;93803.47;4962250;28;20030;-48
2024/01/17 04:42:51;;;;;;;22.48;13.32;;;5.10;64.90;;;-0.06;100.00;93794.81;4960617;28;20100;-47
2024/01/17 04:45:17;;;;;;;20.60;13.70;;;5.20;65.00;;;-0.04;100.00;93797.97;4962121;28;20030;-53
2024/01/17 04:47:44;;;;;;;24.92;14.15;;;5.20;65.00;;;-0.05;100.00;93799.00;4957898;28;20089;-47
2024/01/17 04:50:12;;;;;;;23.05;13.75;;;5.20;65.10;;;-0.03;100.00;93784.66;4958616;28;20026;-48
2024/01/17 04:52:39;;;;;;;23.27;14.10;;;5.20;65.00;;;-0.01;100.00;93782.56;4965151;28;20034;-48
2024/01/17 04:55:07;;;;;;;23.55;14.07;;;5.20;65.00;;;-0.03;100.00;93778.63;4966962;28;20047;-50
2024/01/17 04:57:35;;;;;;;22.75;13.60;;;5.30;65.20;;;-0.02;100.00;93764.50;4970302;28;20131;-48
2024/01/17 05:00:03;;;;;;;22.85;13.27;;;5.20;65.10;;;-0.07;100.00;93749.50;4965001;28;20505;-51
2024/01/17 05:02:29;;;;;;;23.67;13.35;;;5.20;65.00;;;-0.08;100.00;93755.78;4970139;28;20037;-48
2024/01/17 05:04:55;;;;;;;21.23;12.30;;;5.20;65.00;;;-0.06;100.00;93755.56;4960726;28;20030;-51
2024/01/17 05:07:21;;;;;;;23.60;13.55;;;5.20;65.10;;;-0.08;100.00;93755.00;4959350;28;20069;-52
2024/01/17 05:09:47;;;;;;;18.25;11.18;;;5.20;65.20;;;-0.16;100.00;93750.19;4959497;28;20396;-52
2024/01/17 05:12:15;;;;;;;19.60;11.82;;;5.20;65.30;;;-0.09;100.00;93748.19;4965492;28;20481;-50
2024/01/17 05:14:42;;;;;;;17.90;11.20;;;5.20;65.30;;;-0.09;100.00;93743.75;4967698;28;20369;-53
2024/01/17 05:17:08;;;;;;;18.70;10.60;;;5.20;65.40;;;-0.11;100.00;93730.09;4962044;28;20337;-48
2024/01/17 05:19:34;;;;;;;19.08;10.90;;;5.20;65.40;;;-0.07;100.00;93738.25;4967455;28;20030;-48
2024/01/17 05:21:59;;;;;;;16.75;11.00;;;5.10;65.50;;;-0.09;100.00;93728.03;4969039;28;20071;-51
2024/01/17 05:24:26;;;;;;;19.13;10.50;;;5.10;65.60;;;-0.08;100.00;93734.06;4959738;28;20026;-48
2024/01/17 05:26:51;;;;;;;15.77;10.13;;;5.10;65.70;;;-0.03;100.00;93737.53;4966323;28;20057;-48
2024/01/17 05:29:17;;;;;;;20.20;10.90;;;5.10;65.80;;;-0.03;100.00;93734.91;4963078;28;20030;-53
2024/01/17 05:31:43;;;;;;;18.35;10.10;;;5.10;65.80;;;-0.04;100.00;93738.56;4965229;28;20026;-50
2024/01/17 05:34:09;;;;;;;17.35;10.77;;;5.20;65.90;;;0.01;100.00;93726.59;4964101;28;20025;-50
2024/01/17 05:36:37;;;;;;;16.73;10.38;;;5.10;65.80;;;0.03;100.00;93733.13;4962080;28;20030;-48
2024/01/17 05:39:04;;;;;;;15.48;9.15;;;5.10;65.90;;;0.02;100.00;93738.63;4962489;28;20026;-50
2024/01/17 05:41:30;;;;;;;15.30;8.85;;;5.20;66.10;;;0.03;100.00;93743.59;4960621;28;20072;-49
2024/01/17 05:43:56;;;;;;;12.18;6.95;;;5.20;66.00;;;0.01;100.00;93737.84;4965227;28;20026;-53
2024/01/17 05:46:22;;;;;;;10.10;7.15;;;5.20;66.10;;;0.04;100.00;93724.25;4963112;28;20061;-50
2024/01/17 05:48:48;;;;;;;20.50;8.73;;;5.20;66.20;;;0.03;100.00;93721.88;4958989;28;20014;-52
2024/01/17 05:51:14;;;;;;;14.02;7.70;;;5.10;66.20;;;0.06;100.00;93718.78;4959391;28;20059;-54
2024/01/17 05:53:41;;;;;;;17.25;9.68;;;5.10;66.30;;;0.05;100.00;93717.97;4960102;28;20061;-49
2024/01/17 05:56:06;;;;;;;10.90;5.68;;;5.10;66.40;;;0.03;100.00;93719.25;4952587;28;20113;-50
2024/01/17 05:58:33;;;;;;;11.10;6.30;;;5.10;66.40;;;0.05;100.00;93722.44;4956621;28;20487;-50
2024/01/17 06:00:59;;;;;;;29.60;7.70;;;5.10;66.50;;;0.08;100.00;93703.63;4953417;28;20023;-51
2024/01/17 06:03:25;;;;;;;9.63;5.63;;;5.10;66.50;;;0.07;100.00;93694.97;4954342;28;20026;-48
2024/01/17 06:05:52;;;;;;;8.75;6.50;;;5.10;66.60;;;0.06;100.00;93703.06;4953852;28;20077;-51
2024/01/17 06:08:18;;;;;;;11.80;7.28;;;5.20;66.70;;;0.08;100.00;93691.31;4952980;28;20034;-50
2024/01/17 06:10:44;;;;;;;11.55;6.82;;;5.10;66.70;;;0.06;100.00;93698.59;4955088;28;20030;-49
2024/01/17 06:13:10;;;;;;;12.75;7.55;;;5.20;66.80;;;0.03;100.00;93678.16;4949523;28;20037;-48
2024/01/17 06:15:36;;;;;;;12.50;7.43;;;5.20;66.90;;;0.06;100.00;93685.53;4957077;28;20058;-50
2024/01/17 06:18:03;;;;;;;12.43;7.82;;;5.20;66.90;;;0.08;100.00;93691.31;4953721;28;20077;-50
2024/01/17 06:20:29;;;;;;;13.00;7.18;;;5.20;67.00;;;0.12;100.00;93674.06;4952339;28;20057;-48
2024/01/17 06:22:54;;;;;;;8.43;5.25;;;5.20;67.00;;;0.11;100.00;93656.78;4955645;28;20054;-52
2024/01/17 06:25:20;;;;;;;11.18;6.35;;;5.20;67.00;;;0.14;100.00;93663.38;4951439;28;20057;-50
2024/01/17 06:27:46;;;;;;;11.20;5.85;;;5.20;67.10;;;0.15;100.00;93649.22;4957182;28;20034;-58
2024/01/17 06:30:13;;;;;;;15.65;9.15;;;5.20;67.10;;;0.17;100.00;93641.91;4945467;28;20203;-52
2024/01/17 06:32:38;;;;;;;11.13;6.60;;;5.30;67.20;;;0.25;100.00;93644.06;4952151;28;20034;-48
2024/01/17 06:35:04;;;;;;;11.80;6.05;;;5.30;67.20;;;0.26;100.00;93624.72;4951311;28;20032;-50
2024/01/17 06:37:31;;;;;;;12.70;6.65;;;5.30;67.20;;;0.26;100.00;93640.44;4951769;28;20027;-49
2024/01/17 06:39:56;;;;;;;9.32;6.35;;;5.30;67.20;;;0.30;100.00;93653.84;4952318;28;20034;-49
2024/01/17 06:42:22;;;;;;;11.15;6.13;;;5.40;67.30;;;0.21;100.00;93616.81;4955481;28;20030;-50
2024/01/17 06:44:48;;;;;;;12.57;6.75;;;5.40;67.30;;;0.22;100.00;93613.19;4954967;28;20022;-52
2024/01/17 06:47:14;;;;;;;9.63;5.70;;;5.40;67.30;;;0.20;100.00;93625.72;4952080;28;20489;-50
2024/01/17 06:49:41;;;;;;;11.70;6.22;;;5.40;67.20;;;0.21;100.00;93656.88;4955314;28;20103;-50
2024/01/17 06:52:07;;;;;;;9.73;5.30;;;5.30;67.20;;;0.27;100.00;93615.81;4958628;28;20046;-49
2024/01/17 06:54:33;;;;;;;17.95;6.60;;;5.40;67.30;;;0.28;100.00;93603.50;4949800;28;20472;-50
2024/01/17 06:56:59;;;;;;;39.50;7.47;;;5.30;67.30;;;0.32;100.00;93604.63;4962398;28;20026;-50
2024/01/17 06:59:25;;;;;;;12.15;6.05;;;5.30;67.40;;;0.19;100.00;93556.06;4947252;28;20029;-50
2024/01/17 07:01:50;;;;;;;11.13;5.57;;;5.30;67.40;;;0.13;100.00;93500.25;4955676;28;20022;-52
2024/01/17 07:04:16;;;;;;;8.25;4.47;;;5.30;67.40;;;0.15;100.00;93536.63;4950532;28;20055;-50
2024/01/17 07:06:42;;;;;;;8.10;4.22;;;5.30;67.60;;;0.31;100.00;93548.03;4956025;28;20041;-50
2024/01/17 07:09:10;;;;;;;6.78;3.63;;;5.30;67.90;;;0.50;100.00;93546.59;4951403;28;20476;-50
2024/01/17 07:11:37;;;;;;;5.95;3.47;;;5.30;68.40;;;0.58;100.00;93525.16;4953427;28;20035;-48
2024/01/17 07:14:04;;;;;;;9.20;3.88;;;5.40;68.50;;;0.57;100.00;93520.97;4950550;28;20501;-50
2024/01/17 07:16:30;;;;;;;7.80;3.88;;;5.50;68.60;;;0.63;100.00;93519.19;4955088;28;20101;-50
2024/01/17 07:18:58;;;;;;;6.38;4.10;;;5.50;68.60;;;0.57;100.00;93520.97;4955195;28;20034;-54
2024/01/17 07:21:24;;;;;;;7.18;4.10;;;5.60;68.70;;;0.65;100.00;93514.47;4949774;28;20034;-49
2024/01/17 07:23:51;;;;;;;6.20;2.92;;;5.60;68.60;;;0.69;100.00;93513.72;4951516;28;20537;-49
2024/01/17 07:26:17;;;;;;;7.50;4.20;;;5.60;68.60;;;0.81;100.00;93502.25;4950715;28;20073;-51
2024/01/17 07:28:43;;;;;;;5.43;3.58;;;5.70;68.80;;;0.86;100.00;93513.53;4953587;28;20054;-50
2024/01/17 07:31:09;;;;;;;9.80;4.38;;;5.70;68.70;;;0.87;100.00;93509.88;4948155;28;20125;-49
2024/01/17 07:33:34;;;;;;;7.03;4.03;;;5.80;68.80;;;0.91;100.00;93518.03;4949469;28;20109;-52
2024/01/17 07:36:00;;;;;;;6.07;3.30;;;5.80;68.70;;;0.91;100.00;93521.44;4948926;28;20037;-50
2024/01/17 07:38:26;;;;;;;6.97;3.88;;;5.90;68.70;;;0.95;100.00;93520.94;4949559;29;20557;-53
2024/01/17 07:40:53;;;;;;;13.73;3.83;;;5.90;68.60;;;0.94;100.00;93522.78;4954007;28;20026;-55
2024/01/17 07:43:19;;;;;;;5.60;3.17;;;5.90;68.50;;;0.98;100.00;93534.31;4948451;28;20548;-53
2024/01/17 07:45:45;;;;;;;5.22;3.05;;;5.90;68.50;;;0.99;100.00;93532.50;4950978;28;20047;-54
2024/01/17 07:48:11;;;;;;;4.10;2.80;;;6.00;69.30;;;1.00;100.00;93523.56;4950716;28;20049;-53
2024/01/17 07:50:37;;;;;;;6.93;3.15;;;6.00;68.50;;;1.04;100.00;93506.31;4950314;28;20140;-53
2024/01/17 07:53:03;;;;;;;8.13;3.20;;;6.00;68.50;;;1.01;100.00;93497.09;4950259;28;20077;-54
2024/01/17 07:55:29;;;;;;;5.95;3.20;;;6.00;68.40;;;1.03;100.00;93495.00;4951125;28;20022;-50
2024/01/17 07:57:54;;;;;;;12.70;3.80;;;6.00;68.40;;;1.01;100.00;93483.22;4966021;28;20504;-50
2024/01/17 08:00:20;;;;;;;3.25;2.30;;;6.10;68.40;;;1.03;100.00;93489.75;4958060;28;20018;-48
2024/01/17 08:02:47;;;;;;;9.85;3.25;;;6.10;68.40;;;1.06;100.00;93470.88;4956246;28;20026;-49
2024/01/17 08:05:13;;;;;;;4.88;2.90;;;6.10;68.40;;;1.09;100.00;93474.84;4950474;28;20397;-49
2024/01/17 08:07:39;;;;;;;4.35;2.70;;;6.10;68.50;;;1.11;100.00;93478.78;4964324;28;20035;-49
2024/01/17 08:10:06;;;;;;;5.70;2.95;;;6.20;68.60;;;1.15;100.00;93471.19;4949636;28;20053;-49
2024/01/17 08:12:32;;;;;;;3.80;2.40;;;6.10;68.60;;;1.17;100.00;93473.56;4950224;28;20581;-50
2024/01/17 08:14:57;;;;;;;4.03;2.88;;;6.20;68.70;;;1.18;100.00;93467.28;4969991;28;20117;-50
2024/01/17 08:17:23;;;;;;;6.70;3.10;;;6.20;68.70;;;1.21;100.00;93472.78;4968740;28;20572;-53
2024/01/17 08:19:49;;;;;;;12.55;3.58;;;6.30;68.70;;;1.21;100.00;93474.63;4954572;28;20482;-53
2024/01/17 08:22:15;;;;;;;7.93;3.28;;;6.30;68.70;;;1.23;100.00;93459.44;4954490;28;20022;-53
2024/01/17 08:24:41;;;;;;;35.90;4.05;;;6.30;68.70;;;1.24;100.00;93461.78;4952776;28;20462;-51
2024/01/17 08:27:07;;;;;;;12.13;2.92;;;6.30;68.70;;;1.17;100.00;93463.88;4969348;28;20042;-52
2024/01/17 08:29:34;;;;;;;8.70;2.97;;;6.30;68.70;;;1.25;100.00;93457.31;4959556;28;20018;-49
2024/01/17 08:32:00;;;;;;;12.18;3.22;;;6.30;68.80;;;1.30;100.00;93457.34;4955399;28;20042;-52
2024/01/17 08:34:26;;;;;;;28.40;4.53;;;6.30;68.90;;;1.26;100.00;93454.44;4959272;28;20413;-53
2024/01/17 08:36:54;;;;;;;5.68;3.33;;;6.30;68.90;;;1.32;100.00;93450.03;4954590;28;20026;-52
2024/01/17 08:39:21;;;;;;;7.60;4.30;;;6.30;68.90;;;1.38;100.00;93451.59;4966145;28;20026;-49
2024/01/17 08:41:47;;;;;;;13.85;4.45;;;6.40;69.10;;;1.38;100.00;93464.72;4959465;28;20480;-51
2024/01/17 08:44:14;;;;;;;10.63;5.53;;;6.40;69.20;;;1.42;100.00;93473.66;4965474;28;20030;-51
2024/01/17 08:46:48;;;;;;;21.67;5.82;;;6.40;69.30;;;1.47;100.00;93464.97;4949540;28;20033;-57
2024/01/17 08:49:16;;;;;;;23.17;5.82;;;6.40;69.30;;;1.51;100.00;93458.19;4952034;28;20018;-49
2024/01/17 08:51:42;;;;;;;6.85;4.60;;;6.50;69.30;;;1.56;100.00;93455.56;4953560;28;20540;-52
2024/01/17 08:54:10;;;;;;;30.80;6.32;;;6.50;69.30;;;1.54;100.00;93453.22;4953416;28;20034;-49
2024/01/17 08:56:35;;;;;;;9.63;4.88;;;6.50;69.20;;;1.57;100.00;93450.06;4953977;28;20500;-49
2024/01/17 08:59:02;;;;;;;12.68;5.72;;;6.60;69.30;;;1.61;100.00;93445.88;4951221;28;20022;-54
2024/01/17 09:01:28;;;;;;;11.20;5.70;;;6.60;69.30;;;1.62;100.00;93454.53;4950227;28;20026;-49
2024/01/17 09:03:54;;;;;;;21.00;5.45;;;6.70;69.40;;;1.66;100.00;93454.78;4958957;28;20026;-49
2024/01/17 09:06:20;;;;;;;10.25;5.07;;;6.70;69.30;;;1.70;100.00;93458.47;4952577;28;20030;-49
2024/01/17 09:08:46;;;;;;;15.43;5.93;;;6.70;69.30;;;1.67;100.00;93462.41;4953739;28;20042;-49
2024/01/17 09:11:12;;;;;;;10.38;5.07;;;6.70;69.30;;;1.65;100.00;93456.63;4952088;28;20027;-56
2024/01/17 09:13:38;;;;;;;9.35;5.50;;;6.70;69.30;;;1.69;100.00;93436.69;4953778;28;20405;-49
2024/01/17 09:16:05;;;;;;;62.05;6.63;;;6.70;69.30;;;1.71;100.00;93420.69;4953593;28;20105;-50
2024/01/17 09:18:31;;;;;;;22.63;5.60;;;6.70;69.30;;;1.68;100.00;93415.94;4952768;28;20106;-50
2024/01/17 09:20:57;;;;;;;36.10;6.60;;;6.80;69.30;;;1.66;100.00;93410.97;4953848;28;20058;-52
2024/01/17 09:23:23;;;;;;;13.07;5.30;;;6.80;69.20;;;1.68;100.00;93410.69;4966864;28;20023;-52
2024/01/17 09:25:49;;;;;;;31.17;5.78;;;6.80;69.20;;;1.68;100.00;93398.38;4957623;28;20047;-53
2024/01/17 09:28:15;;;;;;;11.93;5.22;;;6.80;69.10;;;1.70;100.00;93398.91;4955566;28;20386;-50
2024/01/17 09:30:41;;;;;;;23.80;5.38;;;6.90;69.50;;;1.71;100.00;93386.56;4954353;28;20037;-54
2024/01/17 09:33:06;;;;;;;41.55;6.40;;;6.90;69.20;;;1.71;100.00;93387.34;4959546;28;20038;-50
2024/01/17 09:35:35;;;;;;;56.75;6.70;;;6.90;69.10;;;1.71;100.00;93391.81;4956932;28;20037;-49
2024/01/17 09:38:02;;;;;;;39.67;6.25;;;6.90;69.10;;;1.74;100.00;93397.31;4961178;28;20034;-51
2024/01/17 09:40:28;;;;;;;20.88;5.32;;;6.90;69.10;;;1.81;100.00;93391.81;4959268;28;20500;-51
2024/01/17 09:42:58;;;;;;;24.30;5.45;;;6.90;69.20;;;1.85;100.00;93385.00;4954612;28;20145;-49
2024/01/17 09:45:29;;;;;;;20.70;4.82;;;7.00;69.50;;;1.90;100.00;93368.44;4959147;28;20426;-51
2024/01/17 09:47:56;;;;;;;18.55;5.45;;;7.00;69.60;;;1.89;100.00;93372.91;4969798;28;20141;-49
2024/01/17 09:50:22;;;;;;;40.72;5.53;;;7.00;69.60;;;1.90;100.00;93381.56;4973170;28;20101;-53
2024/01/17 09:52:52;;;;;;;8.88;3.72;;;7.00;69.60;;;1.95;100.00;93377.09;4956866;28;20109;-57
2024/01/17 09:55:22;;;;;;;12.93;4.13;;;7.10;69.70;;;2.02;100.00;93376.81;4959997;28;20038;-53
2024/01/17 09:57:58;;;;;;;41.47;5.68;;;7.10;69.80;;;2.09;100.00;93364.19;4974515;28;20022;-56
2024/01/17 10:00:27;;;;;;;104.85;8.20;;;7.20;69.90;;;2.17;100.00;93361.03;4955930;28;20148;-53
2024/01/17 10:02:55;;;;;;;6.97;3.63;;;7.30;70.00;;;2.21;100.00;93363.94;4961167;28;20018;-49
2024/01/17 10:05:26;;;;;;;27.95;4.63;;;7.40;70.00;;;2.24;100.00;93371.28;4957780;28;20054;-49
2024/01/17 10:07:52;;;;;;;32.42;4.97;;;7.40;70.00;;;2.29;100.00;93372.06;4961349;28;20442;-53
2024/01/17 10:10:21;;;;;;;9.35;4.20;;;7.50;70.00;;;2.36;100.00;93369.16;4962717;28;20022;-54
2024/01/17 10:12:47;;;;;;;8.43;4.10;;;7.60;70.10;;;2.43;100.00;93374.91;4959522;28;20026;-53